Time;durP1;ratioP1;P1;durP2;ratioP2;P2;SDS_P1;SDS_P2;PMS_P1;PMS_P2;Temp;Humidity;BMP_temperature;BMP_pressure;BME280_temperature;BME280_humidity;BME280_pressure;Samples;Min_cycle;Max_cycle;Signal;HPM_P1;HPM_P2
2023/02/23 00:01:32;;;;;;;26.77;13.00;;;;;;;6.67;56.57;100246.06;5040187;27;97665;-81
2023/02/23 00:03:58;;;;;;;28.65;13.30;;;;;;;6.62;56.25;100244.44;5021235;27;101912;-82
2023/02/23 00:06:25;;;;;;;27.30;13.53;;;;;;;6.77;56.52;100260.63;5023512;27;96828;-81
2023/02/23 00:08:51;;;;;;;28.55;13.68;;;;;;;6.82;56.25;100263.16;5037566;27;97322;-81
2023/02/23 00:11:18;;;;;;;28.55;13.07;;;;;;;6.80;55.97;100249.28;5020538;27;101873;-81
2023/02/23 00:13:45;;;;;;;26.92;13.18;;;;;;;6.88;56.12;100259.59;5067620;27;97367;-80
2023/02/23 00:16:16;;;;;;;31.23;12.65;;;;;;;6.70;56.06;100238.19;5046483;27;97820;-81
2023/02/23 00:18:49;;;;;;;29.25;14.00;;;;;;;6.71;56.07;100245.09;5045503;27;97361;-81
2023/02/23 00:21:28;;;;;;;30.25;13.23;;;;;;;6.75;56.15;100249.41;5062351;27;101198;-82
2023/02/23 00:23:54;;;;;;;29.10;13.23;;;;;;;6.61;56.28;100227.06;5049666;27;98711;-82
2023/02/23 00:26:23;;;;;;;30.08;14.10;;;;;;;6.60;56.24;100236.63;5040915;27;98412;-82
2023/02/23 00:28:52;;;;;;;31.80;13.18;;;;;;;6.58;55.98;100226.22;5028792;27;98113;-81
2023/02/23 00:31:22;;;;;;;27.02;13.35;;;;;;;6.71;56.25;100252.94;5062936;27;102194;-81
2023/02/23 00:33:50;;;;;;;29.73;13.35;;;;;;;6.68;56.01;100254.75;5030299;27;100764;-81
2023/02/23 00:36:16;;;;;;;25.88;12.75;;;;;;;6.65;55.83;100246.97;5030771;27;97498;-81
2023/02/23 00:38:44;;;;;;;30.25;13.15;;;;;;;6.65;56.06;100245.22;5029565;27;97045;-81
2023/02/23 00:41:20;;;;;;;27.25;13.65;;;;;;;6.62;56.23;100247.91;5052676;27;98411;-81
2023/02/23 00:43:48;;;;;;;27.27;13.30;;;;;;;6.59;56.36;100242.75;5058753;27;98069;-81
2023/02/23 00:46:20;;;;;;;32.45;14.35;;;;;;;6.57;56.39;100252.34;5027242;27;97071;-81
2023/02/23 00:48:49;;;;;;;36.75;14.20;;;;;;;6.55;56.05;100249.78;5041093;27;97004;-81
2023/02/23 00:51:16;;;;;;;25.50;12.70;;;;;;;6.58;56.22;100254.94;5046968;27;101205;-80
2023/02/23 00:53:43;;;;;;;29.93;14.37;;;;;;;6.48;56.21;100248.16;5028837;27;98105;-80
2023/02/23 00:56:10;;;;;;;31.42;13.43;;;;;;;6.29;56.31;100239.81;5044338;27;97178;-81
2023/02/23 00:58:36;;;;;;;28.65;13.20;;;;;;;6.29;56.32;100234.59;5023045;27;97737;-81
2023/02/23 01:01:05;;;;;;;27.40;13.88;;;;;;;6.24;56.43;100241.63;5033081;27;101183;-81
2023/02/23 01:03:31;;;;;;;28.48;13.40;;;;;;;6.17;56.48;100234.81;5031952;27;102012;-81
2023/02/23 01:06:04;;;;;;;30.40;13.55;;;;;;;6.28;56.74;100245.03;5036083;27;97877;-81
2023/02/23 01:08:31;;;;;;;28.02;13.48;;;;;;;6.23;56.48;100231.25;5031496;27;98037;-80
2023/02/23 01:10:57;;;;;;;30.33;13.53;;;;;;;6.26;56.73;100249.44;5028529;27;101436;-80
2023/02/23 01:13:23;;;;;;;27.87;13.10;;;;;;;6.22;56.46;100238.19;5029510;27;101337;-80
2023/02/23 01:15:49;;;;;;;30.95;14.15;;;;;;;6.23;56.64;100242.53;5044582;27;97154;-80
2023/02/23 01:18:16;;;;;;;30.85;14.05;;;;;;;6.10;56.56;100214.94;5018206;27;97964;-81
2023/02/23 01:20:42;;;;;;;32.72;13.57;;;;;;;6.23;56.81;100241.69;5046562;27;101615;-81
2023/02/23 01:23:11;;;;;;;28.53;13.80;;;;;;;6.08;56.52;100219.34;5046522;27;101194;-80
2023/02/23 01:25:39;;;;;;;34.23;14.00;;;;;;;6.17;56.52;100240.03;5038026;27;97147;-81
2023/02/23 01:28:04;;;;;;;31.37;14.00;;;;;;;6.14;56.83;100229.66;5043341;27;96942;-81
2023/02/23 01:30:30;;;;;;;32.80;13.90;;;;;;;6.16;56.91;100238.28;5054777;27;101073;-81
2023/02/23 01:32:55;;;;;;;35.87;16.80;;;;;;;6.02;56.72;100233.34;5056002;27;97818;-81
2023/02/23 01:35:21;;;;;;;30.77;14.63;;;;;;;5.95;57.07;100225.63;5021909;27;97250;-81
2023/02/23 01:37:48;;;;;;;32.47;15.03;;;;;;;5.87;57.08;100223.97;5057892;27;97494;-81
2023/02/23 01:40:27;;;;;;;32.72;15.15;;;;;;;5.78;57.29;100218.91;5022509;27;99248;-81
2023/02/23 01:43:12;;;;;;;30.20;14.40;;;;;;;5.85;56.97;100235.31;5051413;27;101189;-80
2023/02/23 01:45:40;;;;;;;28.53;14.07;;;;;;;5.86;57.15;100222.25;5022147;27;97083;-81
2023/02/23 01:48:36;;;;;;;34.67;14.50;;;;;;;5.96;57.42;100233.41;5048312;27;97001;-80
2023/02/23 01:51:12;;;;;;;34.60;13.40;;;;;;;5.81;57.17;100202.38;5049971;27;98077;-80
2023/02/23 01:53:41;;;;;;;29.87;14.47;;;;;;;5.79;57.25;100204.13;5030907;27;101481;-80
2023/02/23 01:56:11;;;;;;;29.17;14.27;;;;;;;5.82;57.13;100204.13;5040511;27;98150;-80
2023/02/23 01:58:42;;;;;;;30.83;14.47;;;;;;;5.79;57.13;100199.81;5057854;27;97549;-80
2023/02/23 02:01:09;;;;;;;29.00;13.13;;;;;;;5.85;56.93;100215.34;5038545;27;101604;-81
2023/02/23 02:03:38;;;;;;;31.63;13.63;;;;;;;5.73;57.54;100212.94;5022566;27;100896;-81
2023/02/23 02:06:06;;;;;;;31.03;14.07;;;;;;;5.75;57.38;100215.50;5043112;27;97053;-80
2023/02/23 02:08:32;;;;;;;28.57;13.80;;;;;;;5.84;57.13;100204.94;5014020;27;99393;-80
2023/02/23 02:10:58;;;;;;;29.33;14.70;;;;;;;5.83;57.24;100206.69;5030145;27;101296;-80
2023/02/23 02:13:29;;;;;;;35.07;14.00;;;;;;;5.79;57.26;100210.22;5028281;27;101124;-80
2023/02/23 02:16:14;;;;;;;28.92;14.35;;;;;;;5.75;57.39;100205.09;5045785;27;97061;-81
2023/02/23 02:18:57;;;;;;;33.03;14.03;;;;;;;5.66;57.10;100206.94;5062681;27;97218;-81
2023/02/23 02:22:03;;;;;;;28.03;13.67;;;;;;;5.50;57.59;100188.97;5055617;27;97931;-81
2023/02/23 02:24:29;;;;;;;28.77;14.57;;;;;;;5.62;57.60;100207.88;4947156;28;103958;-81
2023/02/23 02:27:09;;;;;;;33.13;14.97;;;;;;;5.51;57.45;100183.75;5044380;27;97214;-81
2023/02/23 02:29:40;;;;;;;31.90;15.00;;;;;;;5.61;57.65;100200.97;5068936;27;97188;-81
2023/02/23 02:32:14;;;;;;;30.63;14.33;;;;;;;5.65;57.20;100197.41;5058661;27;101474;-81
2023/02/23 02:34:46;;;;;;;33.30;15.43;;;;;;;5.66;57.41;100201.72;5054817;27;98129;-81
2023/02/23 02:37:55;;;;;;;32.38;15.15;;;;;;;5.48;57.62;100196.81;5053014;27;97169;-81
2023/02/23 02:40:31;;;;;;;28.50;13.73;;;;;;;5.44;57.92;100206.44;5038733;27;98182;-81
2023/02/23 02:43:10;;;;;;;28.80;14.87;;;;;;;5.42;57.77;100194.31;5038417;27;101227;-81
2023/02/23 02:45:49;;;;;;;30.93;13.80;;;;;;;5.32;57.74;100201.38;5042912;27;101288;-81
2023/02/23 02:48:17;;;;;;;30.13;14.53;;;;;;;5.25;57.95;100207.56;5031990;27;97377;-81
2023/02/23 02:50:54;;;;;;;33.10;16.17;;;;;;;5.18;58.17;100187.72;5040654;27;97403;-81
2023/02/23 02:53:53;;;;;;;28.10;14.47;;;;;;;5.17;57.94;100192.03;5029748;27;101164;-81
2023/02/23 02:56:21;;;;;;;32.47;15.90;;;;;;;5.15;58.35;100191.22;5062994;27;101267;-81
2023/02/23 02:58:49;;;;;;;34.37;16.30;;;;;;;5.24;58.12;100187.63;5038751;27;97299;-80
2023/02/23 04:18:56;;;;;;;45.43;23.70;;;;;;;4.97;59.54;100176.72;5033360;27;98107;-82
2023/02/23 04:21:22;;;;;;;41.70;22.43;;;;;;;4.83;59.77;100150.03;5035593;27;97129;-82
2023/02/23 04:23:47;;;;;;;50.47;23.63;;;;;;;4.91;59.72;100174.19;5032648;27;102096;-82
2023/02/23 04:26:13;;;;;;;49.03;22.47;;;;;;;4.84;59.70;100156.09;5030888;27;101201;-81
2023/02/23 04:28:38;;;;;;;46.07;22.70;;;;;;;4.90;60.07;100172.47;5032791;27;97080;-82
2023/02/23 04:31:04;;;;;;;46.23;21.80;;;;;;;4.90;59.99;100174.22;5039592;27;97103;-81
2023/02/23 04:33:29;;;;;;;43.83;21.13;;;;;;;4.88;60.48;100165.56;5033102;27;100912;-82
2023/02/23 04:35:55;;;;;;;44.20;22.00;;;;;;;4.83;59.99;100172.56;5025672;27;101399;-82
2023/02/23 04:38:21;;;;;;;48.47;22.07;;;;;;;4.86;60.07;100170.81;5023838;27;97943;-82
2023/02/23 04:40:47;;;;;;;46.23;21.77;;;;;;;4.92;60.14;100178.53;5043201;27;97643;-82
2023/02/23 04:43:13;;;;;;;43.17;23.50;;;;;;;4.80;60.27;100172.59;5040514;27;100878;-82
2023/02/23 04:45:39;;;;;;;46.30;22.60;;;;;;;4.78;60.30;100171.78;5024890;27;100882;-82
2023/02/23 04:48:04;;;;;;;48.67;23.33;;;;;;;4.73;60.58;100177.03;5034096;27;97325;-82
2023/02/23 04:50:30;;;;;;;43.13;22.23;;;;;;;4.79;60.43;100174.34;5039171;27;97281;-82
2023/02/23 04:52:55;;;;;;;42.90;23.03;;;;;;;4.73;60.52;100162.28;5047432;27;104411;-82
2023/02/23 04:55:23;;;;;;;50.27;23.90;;;;;;;4.78;60.47;100172.66;5023482;27;101542;-81
2023/02/23 04:57:50;;;;;;;59.70;25.37;;;;;;;4.64;61.32;100164.16;5052444;27;96823;-82
2023/02/23 05:00:17;;;;;;;56.07;26.00;;;;;;;4.68;60.95;100168.41;5047943;27;96732;-82
2023/02/23 05:02:43;;;;;;;49.53;23.53;;;;;;;4.63;60.82;100159.84;5028251;27;101852;-82
2023/02/23 05:05:09;;;;;;;49.67;24.73;;;;;;;4.63;61.26;100163.28;5033358;27;101199;-82
2023/02/23 05:07:35;;;;;;;53.13;26.53;;;;;;;4.57;61.01;100150.38;5013967;27;98603;-82
2023/02/23 05:10:01;;;;;;;51.63;25.87;;;;;;;4.67;61.40;100175.38;5044655;27;97498;-82
2023/02/23 05:12:27;;;;;;;52.50;26.00;;;;;;;4.56;61.64;100163.38;5045420;27;101109;-83
2023/02/23 05:14:52;;;;;;;55.60;27.37;;;;;;;4.54;61.75;100168.63;5043766;27;100906;-82
2023/02/23 05:17:18;;;;;;;64.57;26.63;;;;;;;4.56;62.24;100165.97;5040725;27;96993;-82
2023/02/23 05:19:43;;;;;;;53.43;26.50;;;;;;;4.53;61.67;100162.53;5051404;27;97426;-81
2023/02/23 05:22:11;;;;;;;54.53;26.20;;;;;;;4.59;61.26;100166.78;5029453;27;101452;-82
2023/02/23 05:24:40;;;;;;;57.17;26.50;;;;;;;4.64;61.32;100166.75;5025417;27;101513;-82
2023/02/23 05:27:07;;;;;;;52.60;28.00;;;;;;;4.63;61.35;100160.69;5035447;27;97961;-81
2023/02/23 05:29:33;;;;;;;58.37;27.60;;;;;;;4.63;61.65;100157.25;5040651;27;97209;-81
2023/02/23 05:31:59;;;;;;;58.27;26.30;;;;;;;4.58;61.66;100167.69;5049912;27;101250;-82
2023/02/23 05:34:24;;;;;;;53.77;28.37;;;;;;;4.53;62.01;100159.94;5032405;27;101071;-82
2023/02/23 05:36:50;;;;;;;54.83;27.37;;;;;;;4.43;61.88;100166.13;5024697;27;97444;-82
2023/02/23 05:39:15;;;;;;;57.00;26.87;;;;;;;4.49;61.91;100167.78;5058801;27;96836;-82
2023/02/23 05:41:41;;;;;;;65.90;28.50;;;;;;;4.51;62.17;100158.25;5029996;27;101428;-82
2023/02/23 05:44:06;;;;;;;57.50;28.00;;;;;;;4.45;62.13;100164.38;5025848;27;101463;-82
2023/02/23 05:46:32;;;;;;;58.53;28.43;;;;;;;4.38;62.26;100156.66;5028525;27;96975;-82
2023/02/23 05:48:59;;;;;;;58.77;28.27;;;;;;;4.34;61.89;100140.25;5016834;27;96855;-82
2023/02/23 05:51:26;;;;;;;53.53;27.33;;;;;;;4.44;61.96;100151.38;5029118;27;101426;-82
2023/02/23 05:53:51;;;;;;;55.43;27.20;;;;;;;4.43;62.24;100173.94;5039242;27;97690;-81
2023/02/23 05:56:19;;;;;;;57.33;28.23;;;;;;;4.46;62.34;100167.84;5032205;27;96828;-82
2023/02/23 05:58:49;;;;;;;51.10;26.17;;;;;;;4.47;62.52;100170.41;5015150;27;97590;-82
2023/02/23 06:01:16;;;;;;;53.80;28.33;;;;;;;4.34;62.29;100163.63;5045878;27;101523;-82
2023/02/23 06:03:42;;;;;;;60.17;29.53;;;;;;;4.29;62.94;100166.28;5046333;27;97576;-82
2023/02/23 06:06:08;;;;;;;59.33;28.50;;;;;;;4.29;62.67;100163.66;5044585;27;96901;-83
2023/02/23 06:08:33;;;;;;;62.93;28.50;;;;;;;4.35;62.52;100173.13;5031809;27;97438;-83
2023/02/23 06:10:59;;;;;;;55.07;27.20;;;;;;;4.40;62.27;100173.09;5062741;27;97579;-84
2023/02/23 06:13:25;;;;;;;57.73;28.40;;;;;;;4.40;62.61;100165.31;5030962;27;100838;-84
2023/02/23 06:15:51;;;;;;;58.63;27.90;;;;;;;4.45;62.27;100174.78;5035168;27;97519;-83
2023/02/23 06:18:17;;;;;;;57.07;28.43;;;;;;;4.38;62.49;100160.13;5021405;27;100657;-82
2023/02/23 06:20:44;;;;;;;56.50;29.70;;;;;;;4.28;62.62;100161.97;5033358;27;101787;-83
2023/02/23 06:23:10;;;;;;;51.23;28.53;;;;;;;4.34;62.89;100162.78;5043599;27;97937;-82
2023/02/23 06:25:36;;;;;;;56.07;28.40;;;;;;;4.23;63.09;100168.09;5040471;27;97121;-82
2023/02/23 06:28:02;;;;;;;54.17;28.23;;;;;;;4.19;62.87;100168.97;5045333;27;97500;-82
2023/02/23 06:30:28;;;;;;;56.27;28.33;;;;;;;4.26;63.16;100168.91;5041723;27;97378;-82
2023/02/23 06:32:54;;;;;;;57.57;28.63;;;;;;;4.33;63.09;100174.88;5036988;27;97597;-82
2023/02/23 06:35:20;;;;;;;59.90;29.40;;;;;;;4.36;63.06;100167.06;5056153;27;97024;-82
2023/02/23 06:37:46;;;;;;;58.60;29.80;;;;;;;4.45;63.04;100179.09;5039414;27;97384;-82
2023/02/23 06:40:11;;;;;;;54.00;27.37;;;;;;;4.45;62.44;100174.78;5035583;27;101245;-82
2023/02/23 06:42:37;;;;;;;55.00;28.87;;;;;;;4.43;62.55;100162.66;5055801;27;101227;-81
2023/02/23 06:45:04;;;;;;;59.80;29.90;;;;;;;4.37;62.58;100149.75;5036792;27;97328;-82
2023/02/23 06:47:29;;;;;;;55.03;29.10;;;;;;;4.47;62.62;100165.19;5044570;27;97710;-82
2023/02/23 06:49:55;;;;;;;55.27;27.83;;;;;;;4.35;62.92;100162.75;5016756;27;100977;-82
2023/02/23 06:52:20;;;;;;;52.13;29.20;;;;;;;4.43;62.80;100162.66;5031170;27;101828;-82
2023/02/23 06:54:47;;;;;;;54.73;29.20;;;;;;;4.30;62.74;100133.34;5047254;27;97518;-82
2023/02/23 06:57:12;;;;;;;65.57;30.63;;;;;;;4.48;62.58;100169.53;5029173;27;97451;-82
2023/02/23 06:59:38;;;;;;;58.23;28.87;;;;;;;4.52;62.62;100167.75;5028264;27;101454;-82
2023/02/23 07:02:04;;;;;;;55.00;27.67;;;;;;;4.47;62.95;100173.00;5022417;27;98699;-82
2023/02/23 07:04:31;;;;;;;48.40;26.83;;;;;;;4.52;62.96;100176.41;5045190;27;97197;-82
2023/02/23 07:06:56;;;;;;;55.40;29.27;;;;;;;4.61;62.53;100172.00;5040081;27;97404;-83
2023/02/23 07:09:22;;;;;;;57.37;29.77;;;;;;;4.64;62.68;100167.59;5028101;27;102135;-83
2023/02/23 07:11:47;;;;;;;55.87;30.27;;;;;;;4.61;62.59;100159.84;5062697;27;99466;-81
2023/02/23 07:14:13;;;;;;;61.77;32.17;;;;;;;4.67;62.58;100167.56;5034768;27;96758;-81
2023/02/23 07:16:39;;;;;;;59.03;30.67;;;;;;;4.63;62.47;100167.66;5058192;27;97258;-81
2023/02/23 07:19:05;;;;;;;59.47;30.53;;;;;;;4.64;62.87;100164.16;5052366;27;97418;-81
2023/02/23 07:21:32;;;;;;;52.43;28.70;;;;;;;4.45;62.91;100141.00;5059938;27;97877;-81
2023/02/23 07:23:58;;;;;;;48.37;28.20;;;;;;;4.61;62.84;100167.66;5037495;27;97942;-82
2023/02/23 07:26:23;;;;;;;60.23;29.40;;;;;;;4.66;62.84;100165.84;5028755;27;97113;-82
2023/02/23 07:28:49;;;;;;;57.03;28.90;;;;;;;4.74;62.68;100170.94;5029812;27;100674;-81
2023/02/23 07:31:15;;;;;;;51.43;27.73;;;;;;;4.51;62.78;100130.50;5020517;27;101213;-81
2023/02/23 07:33:41;;;;;;;54.93;28.23;;;;;;;4.65;62.72;100161.50;5042835;27;97667;-82
2023/02/23 07:36:07;;;;;;;52.50;27.63;;;;;;;4.72;62.89;100150.19;5051949;27;97314;-82
2023/02/23 07:38:32;;;;;;;50.47;25.97;;;;;;;4.82;62.55;100152.66;5040902;27;97567;-82
2023/02/23 07:40:58;;;;;;;53.67;29.27;;;;;;;4.92;62.15;100149.91;5016562;27;104723;-81
2023/02/23 07:43:24;;;;;;;53.77;28.43;;;;;;;4.86;62.22;100138.72;5021789;27;97172;-81
2023/02/23 07:45:50;;;;;;;56.00;28.17;;;;;;;5.02;62.16;100155.00;5046841;27;97522;-81
2023/02/23 07:48:17;;;;;;;54.40;28.33;;;;;;;5.05;62.24;100136.72;5049821;27;101929;-83
2023/02/23 07:50:43;;;;;;;55.67;28.13;;;;;;;5.28;61.74;100144.19;5046499;27;97831;-83
2023/02/23 07:53:09;;;;;;;54.97;28.40;;;;;;;5.44;61.58;100149.16;5030922;27;97837;-82
2023/02/23 07:55:37;;;;;;;53.10;28.00;;;;;;;5.53;61.41;100142.94;5046425;27;97361;-81
2023/02/23 07:58:03;;;;;;;51.30;27.30;;;;;;;5.67;61.43;100146.19;5023244;27;102053;-82
2023/02/23 08:00:29;;;;;;;49.67;27.73;;;;;;;5.77;60.82;100139.06;5030895;27;101153;-83
2023/02/23 08:02:54;;;;;;;53.53;30.13;;;;;;;5.80;60.13;100139.00;5026867;27;97299;-82
2023/02/23 08:05:20;;;;;;;52.60;27.80;;;;;;;5.80;60.35;100140.75;5041303;27;96916;-82
2023/02/23 08:07:46;;;;;;;52.20;27.43;;;;;;;5.83;60.50;100131.13;5063618;27;98450;-81
2023/02/23 08:10:12;;;;;;;54.63;27.93;;;;;;;5.79;60.74;100112.97;5039942;27;101714;-81
2023/02/23 08:12:37;;;;;;;51.17;27.43;;;;;;;6.11;60.10;100135.88;5038964;27;97642;-77
2023/02/23 08:15:07;;;;;;;46.27;26.03;;;;;;;6.05;60.00;100120.34;5046196;27;97252;-82
2023/02/23 08:17:36;;;;;;;45.87;26.50;;;;;;;6.23;60.29;100119.16;5024542;27;101080;-83
2023/02/23 08:20:03;;;;;;;53.47;27.00;;;;;;;6.52;59.95;100137.69;5023476;27;101074;-81
2023/02/23 08:22:29;;;;;;;46.67;26.13;;;;;;;6.70;59.52;100119.94;5044045;27;97002;-84
2023/02/23 08:24:55;;;;;;;51.87;26.50;;;;;;;7.12;58.56;100138.13;5058263;27;96986;-83
2023/02/23 08:27:20;;;;;;;48.28;26.55;;;;;;;7.21;57.09;100109.19;5044180;27;98101;-83
2023/02/23 08:29:46;;;;;;;46.33;25.95;;;;;;;7.37;57.88;100136.69;5030695;27;98096;-86
2023/02/23 08:32:12;;;;;;;53.72;26.85;;;;;;;7.41;57.08;100127.88;4996219;27;97360;-83
2023/02/23 08:34:43;;;;;;;50.83;26.70;;;;;;;7.64;57.62;100127.31;4994222;27;97340;-84
2023/02/23 08:37:09;;;;;;;48.47;26.17;;;;;;;7.84;56.88;100120.72;4984994;27;101299;-82
2023/02/23 08:39:35;;;;;;;39.85;24.80;;;;;;;8.02;56.68;100122.84;5001303;27;100835;-81
2023/02/23 08:42:01;;;;;;;47.15;26.55;;;;;;;8.29;55.38;100126.47;5000283;27;97259;-83
2023/02/23 08:44:27;;;;;;;41.60;24.92;;;;;;;8.46;55.67;100119.94;4996363;27;97410;-83
2023/02/23 08:46:54;;;;;;;44.53;24.42;;;;;;;8.72;55.15;100127.88;5007387;27;99665;-83
2023/02/23 08:49:20;;;;;;;46.20;26.63;;;;;;;8.65;54.00;100110.66;5026457;27;97572;-85
2023/02/23 08:51:45;;;;;;;49.17;26.80;;;;;;;8.71;54.46;100135.78;5019969;27;96886;-84
2023/02/23 08:54:13;;;;;;;42.58;24.85;;;;;;;8.68;54.29;100114.94;5023492;27;97297;-85
2023/02/23 08:56:43;;;;;;;37.47;23.23;;;;;;;9.01;53.60;100128.78;5018239;27;96983;-84
2023/02/23 08:59:10;;;;;;;51.03;26.60;;;;;;;9.02;53.94;100117.41;5005523;27;98091;-84
2023/02/23 09:01:36;;;;;;;40.55;24.55;;;;;;;9.09;53.42;100107.59;4997450;27;97237;-83
2023/02/23 09:04:03;;;;;;;38.75;23.90;;;;;;;9.44;53.83;100122.19;5000413;27;97570;-82
2023/02/23 09:06:29;;;;;;;41.25;24.52;;;;;;;10.00;52.41;100118.56;4991434;27;101634;-81
2023/02/23 09:08:55;;;;;;;41.45;24.67;;;;;;;10.37;51.41;100110.28;5006994;27;101560;-83
2023/02/23 09:11:22;;;;;;;41.17;24.23;;;;;;;10.73;50.18;100118.53;5017416;27;96722;-84
2023/02/23 09:13:48;;;;;;;47.00;25.90;;;;;;;10.69;51.07;100113.47;4998172;27;97075;-82
2023/02/23 09:16:13;;;;;;;36.80;24.55;;;;;;;10.89;50.33;100118.81;5015956;27;98256;-82
2023/02/23 09:18:39;;;;;;;44.10;25.25;;;;;;;11.14;49.87;100115.22;5024846;27;98359;-82
2023/02/23 09:21:07;;;;;;;46.03;25.98;;;;;;;11.38;49.85;100113.41;4979636;28;97332;-82
2023/02/23 09:23:34;;;;;;;40.67;25.10;;;;;;;11.57;49.29;100111.72;5003685;27;96998;-83
2023/02/23 09:26:04;;;;;;;50.05;25.98;;;;;;;11.39;49.16;100070.44;4992348;27;101664;-82
2023/02/23 09:28:32;;;;;;;38.75;25.08;;;;;;;11.77;49.11;100103.00;5007192;27;101769;-82
2023/02/23 09:31:05;;;;;;;39.25;23.55;;;;;;;11.85;48.56;100110.59;4992249;27;97842;-81
2023/02/23 09:33:30;;;;;;;40.10;24.15;;;;;;;11.88;49.12;100095.56;5000970;27;97544;-82
2023/02/23 09:35:56;;;;;;;41.95;24.83;;;;;;;12.02;48.41;100096.75;5000093;27;101918;-82
2023/02/23 09:38:23;;;;;;;40.83;25.35;;;;;;;11.95;48.12;100086.47;5007501;27;101708;-82
2023/02/23 09:40:54;;;;;;;42.50;23.92;;;;;;;11.94;48.63;100081.28;5014295;27;97398;-82
2023/02/23 09:43:47;;;;;;;40.13;24.75;;;;;;;12.00;48.78;100084.50;5008955;27;97447;-81
2023/02/23 09:46:37;;;;;;;39.75;24.85;;;;;;;12.06;48.11;100087.78;5009479;27;101568;-82
2023/02/23 09:49:05;;;;;;;40.42;24.50;;;;;;;11.92;48.36;100068.19;5007439;27;101187;-83
2023/02/23 09:51:36;;;;;;;40.95;23.98;;;;;;;12.20;48.56;100091.50;5002002;27;98413;-80
2023/02/23 09:54:02;;;;;;;39.33;23.85;;;;;;;12.36;48.31;100075.91;4993192;27;96984;-80
2023/02/23 09:56:43;;;;;;;42.80;26.05;;;;;;;12.35;47.64;100079.44;4997983;27;101523;-81
2023/02/23 09:59:14;;;;;;;36.45;23.33;;;;;;;12.23;47.85;100077.38;4989541;27;101492;-81
2023/02/23 10:02:08;;;;;;;43.90;24.00;;;;;;;12.21;48.59;100076.56;4993363;28;100279;-81
2023/02/23 10:04:46;;;;;;;39.05;24.20;;;;;;;12.19;48.56;100076.66;5001619;27;97307;-79
2023/02/23 10:07:33;;;;;;;42.25;25.00;;;;;;;12.58;48.22;100081.03;4993654;27;101509;-80
2023/02/23 10:10:01;;;;;;;41.40;25.73;;;;;;;12.80;48.03;100082.66;4992887;27;101686;-82
2023/02/23 10:12:52;;;;;;;37.80;24.98;;;;;;;13.02;47.01;100087.78;5000353;27;100245;-82
2023/02/23 10:15:32;;;;;;;43.95;24.02;;;;;;;12.81;47.38;100066.78;4993223;27;97045;-79
2023/02/23 10:18:18;;;;;;;39.97;24.67;;;;;;;12.60;47.93;100073.06;5020876;27;97953;-79
2023/02/23 10:20:52;;;;;;;42.90;24.52;;;;;;;12.54;47.94;100076.84;5006242;27;98561;-79
2023/02/23 10:23:32;;;;;;;38.22;24.13;;;;;;;12.36;48.54;100067.13;5018530;27;97472;-79
2023/02/23 10:25:59;;;;;;;45.00;26.55;;;;;;;12.13;48.74;100070.78;5022043;27;98328;-80
2023/02/23 10:28:26;;;;;;;41.97;24.77;;;;;;;11.82;49.28;100052.84;5017110;27;97435;-81
2023/02/23 10:30:53;;;;;;;39.00;23.25;;;;;;;11.66;50.01;100040.34;5053331;27;101802;-79
2023/02/23 10:33:31;;;;;;;39.22;25.15;;;;;;;11.63;50.05;100058.88;5039132;27;97782;-80
2023/02/23 10:36:04;;;;;;;43.05;24.30;;;;;;;11.57;50.51;100054.75;5025183;27;97926;-79
2023/02/23 10:38:30;;;;;;;41.67;25.25;;;;;;;11.47;50.73;100052.59;5034205;27;101713;-79
2023/02/23 10:40:56;;;;;;;38.63;24.42;;;;;;;11.31;51.35;100053.22;5027497;27;101426;-83
2023/02/23 10:43:21;;;;;;;35.17;24.58;;;;;;;11.11;51.83;100053.16;5050580;27;97171;-83
2023/02/23 10:45:55;;;;;;;39.75;24.13;;;;;;;10.62;52.26;100013.97;5028480;27;96820;-80
2023/02/23 10:48:23;;;;;;;41.10;23.98;;;;;;;10.58;52.30;100030.72;5045018;27;97371;-81
2023/02/23 10:50:50;;;;;;;40.63;24.52;;;;;;;10.63;52.95;100043.69;5039938;27;101243;-83
2023/02/23 10:53:26;;;;;;;41.72;25.92;;;;;;;10.55;53.30;100037.88;5044104;27;96870;-75
2023/02/23 10:56:14;;;;;;;41.75;24.27;;;;;;;10.48;53.48;100039.88;5049120;27;97482;-78
2023/02/23 10:58:43;;;;;;;35.90;23.98;;;;;;;10.36;53.61;100033.34;5045344;27;100514;-79
2023/02/23 11:01:09;;;;;;;36.92;23.27;;;;;;;10.31;53.85;100042.28;5048781;27;101512;-78
2023/02/23 11:03:49;;;;;;;41.00;25.80;;;;;;;10.17;54.38;100022.63;5026878;27;97211;-81
2023/02/23 11:06:32;;;;;;;38.58;24.42;;;;;;;10.09;55.09;100016.81;5052253;27;97847;-76
2023/02/23 11:08:58;;;;;;;43.30;25.25;;;;;;;10.09;54.82;100016.81;5060839;27;97387;-76
2023/02/23 11:11:27;;;;;;;52.53;29.95;;;;;;;10.20;54.67;100021.66;5069300;27;98019;-80
2023/02/23 11:13:54;;;;;;;37.33;23.95;;;;;;;10.17;54.90;100027.03;5045833;27;97345;-81
2023/02/23 11:16:23;;;;;;;40.30;24.25;;;;;;;10.04;55.66;100010.91;5028742;27;97457;-83
2023/02/23 11:18:57;;;;;;;41.80;24.02;;;;;;;10.03;55.54;100022.28;5027369;27;101393;-79
2023/02/23 11:21:32;;;;;;;39.35;23.50;;;;;;;9.98;56.04;100013.75;5035079;27;99501;-80
2023/02/23 11:24:05;;;;;;;35.28;23.27;;;;;;;9.77;56.37;99994.38;5065262;27;97910;-80
2023/02/23 11:26:42;;;;;;;39.17;24.30;;;;;;;9.69;56.72;99983.34;5030686;27;98263;-79
2023/02/23 11:29:20;;;;;;;36.97;23.42;;;;;;;9.70;56.49;99969.31;5046700;27;101007;-79
2023/02/23 11:31:49;;;;;;;44.10;23.70;;;;;;;9.84;56.77;99979.31;5065608;27;101353;-80
2023/02/23 11:34:23;;;;;;;43.13;23.35;;;;;;;10.02;56.41;99996.13;5046158;27;96858;-79
2023/02/23 11:37:00;;;;;;;37.53;22.42;;;;;;;9.92;56.73;99993.84;5042233;27;97573;-82
2023/02/23 11:39:26;;;;;;;40.95;23.92;;;;;;;9.86;57.07;99977.47;5046896;27;101425;-80
2023/02/23 11:42:04;;;;;;;41.80;24.17;;;;;;;9.97;56.96;99988.41;5032704;27;101372;-81
2023/02/23 11:44:29;;;;;;;41.35;24.63;;;;;;;9.83;57.09;99988.94;5065146;27;97376;-81
2023/02/23 11:46:56;;;;;;;45.03;25.27;;;;;;;9.82;57.41;99970.63;5028919;27;96865;-80
2023/02/23 11:49:44;;;;;;;40.67;24.75;;;;;;;9.85;58.13;99986.25;5046694;27;97857;-82
2023/02/23 11:52:19;;;;;;;40.65;23.48;;;;;;;9.74;57.94;99968.28;5031984;27;101174;-81
2023/02/23 11:54:58;;;;;;;37.47;24.67;;;;;;;9.78;58.39;99971.66;5033847;27;100152;-81
2023/02/23 11:57:34;;;;;;;43.88;23.52;;;;;;;9.82;58.70;99975.88;5050937;27;97210;-81
2023/02/23 12:00:07;;;;;;;41.17;23.40;;;;;;;9.81;58.75;99961.91;5041355;27;99274;-82
2023/02/23 12:02:50;;;;;;;36.90;24.48;;;;;;;9.69;59.25;99933.53;5060917;27;97855;-87
2023/02/23 12:05:25;;;;;;;39.20;23.92;;;;;;;9.81;59.38;99961.06;5026806;27;97875;-82
2023/02/23 12:07:56;;;;;;;36.20;22.73;;;;;;;9.96;58.65;99957.88;5063431;27;96788;-77
2023/02/23 12:10:42;;;;;;;45.13;25.20;;;;;;;9.95;59.33;99954.41;5062097;27;101651;-82
2023/02/23 12:13:29;;;;;;;38.92;24.13;;;;;;;9.95;59.33;99959.66;5034670;27;101507;-80
2023/02/23 12:16:01;;;;;;;43.95;23.60;;;;;;;9.92;59.70;99951.03;5045011;27;97166;-77
2023/02/23 12:18:57;;;;;;;40.20;24.63;;;;;;;9.92;60.08;99954.53;5031464;27;96832;-78
2023/02/23 12:21:31;;;;;;;37.75;24.58;;;;;;;9.91;60.07;99954.56;5061373;27;98141;-79
2023/02/23 12:24:24;;;;;;;39.60;23.60;;;;;;;9.88;60.25;99941.56;5061046;27;101365;-78
2023/02/23 12:26:55;;;;;;;36.60;22.83;;;;;;;9.81;60.39;99922.59;5006004;27;97295;-78
2023/02/23 12:29:49;;;;;;;39.40;24.80;;;;;;;9.94;60.24;99952.66;5054958;27;97257;-79
2023/02/23 12:32:21;;;;;;;40.17;23.85;;;;;;;9.79;60.47;99916.53;5061169;27;97632;-79
2023/02/23 12:34:53;;;;;;;41.72;24.10;;;;;;;9.93;60.53;99932.63;5033078;27;101489;-79
2023/02/23 12:37:23;;;;;;;43.42;24.85;;;;;;;9.98;60.34;99938.56;5047393;27;97208;-79
2023/02/23 12:39:52;;;;;;;43.97;24.58;;;;;;;10.05;60.36;99935.69;5060349;27;97571;-78
2023/02/23 12:42:35;;;;;;;44.88;25.75;;;;;;;10.08;60.50;99925.94;5055247;27;97538;-78
2023/02/23 12:45:05;;;;;;;39.88;25.13;;;;;;;10.03;60.82;99912.13;5030321;27;101145;-79